Lena, Illinois
Current Conditions -  °F | °C
As of 11:55 AM on Sunday 21 Dec 2014 (Local Time) from KFEP Reporting Station
Overcast Overcast  
Wind Chill: 26°   Ceiling: 1000
Heat Index: 35°   Visibility: 7mi
Dew Point: 32°   Wind: 14mph
Humidity: 89%   Direction: 170°S
Pressure: 30.09"   Gusts: 18mph
Location:  42.38°N, 89.82°W
Report Text: KFEP 211755Z AUTO 17012G16KT 7SM BKN010 OVC030 02/00 A3009 RMK AO2 T00170000 10017 20000
Loading
Personal Weather Stations






























Interactive Weather Map New forecast layout! Learn more

10-Day Weather Forecast

Advertisements
Track Severe Weather on mobile